Logo AVAMET
Benvolgut visitant, si us plau, ingressa Recuperar contrasenya
AVAMET paisatges

Vilallonga el Pla de la Llacuna

Dades diàries. Acumulats / Últims 30 dies disponibles

Data Temperatura (°C) Humitat rel. (%) Pressió rel. (hPa) Vent (km/h) Precipitació
Mínima Mitjana Màxima Amplitud
tèrmica
Mínima Mitjana Màxima Mínima Mitjana Màxima Predom. Mitjana Ràfega
màxima
Total
(mm)
Índex-n
Mínima Mitjana Màxima Mínima Mitjana Màxima n
0 a 1
P0 max
mm 5'
Dades mensuals acumulades fins l'últim dia disponible
07/2020 17,7 18,7 19,8 24,3 25,0 30,5 34,8 17,1 24 74 97 1.009 1.015 1.021   2,4 24,1 1,2
Dades anuals acumulades fins l'últim dia disponible
2020 3,0 10,8 19,9 14,8 7,2 19,4 34,8 31,8 22 74 100 1.001 1.018 1.034   4,3 91,7 901,4
Últims 30 dies disponibles
06-07-2020 19,3     26,0     32,2 12,9 39 56 79 1.013 1.015 1.017 ESE 1,6 17,7 0,0
05-07-2020 17,8     23,3     30,6 12,8 46 75 97 1.016 1.019 1.021 E 1,2 20,9 0,0
04-07-2020 18,2     23,3     29,4 11,2 65 82 97 1.018 1.019 1.021 E 3,2 20,9 0,0
03-07-2020 19,8     21,9     25,0 5,2 73 90 97 1.014 1.017 1.019 E 2,6 17,7 1,2
02-07-2020 19,6     24,5     30,9 11,3 24 77 95 1.010 1.012 1.014 SE 3,2 19,3 0,0
01-07-2020 17,7     26,6     34,8 17,1 36 64 91 1.009 1.010 1.012 SE 2,5 24,1 0,0
30-06-2020 18,7     22,6     27,4 8,7 69 86 97 1.011 1.013 1.015 ESE 1,6 17,7 0,0
29-06-2020 17,5     23,5     30,2 12,7 56 79 96 1.012 1.015 1.016 ESE 1,6 17,7 0,0
28-06-2020 17,7     23,2     28,8 11,1 61 77 91 1.014 1.015 1.017 ENE 1,6 16,1 0,0
27-06-2020 17,4     23,7     29,6 12,2 37 68 88 1.013 1.014 1.015 SE 1,7 20,9 0,0
26-06-2020 16,4     21,8     26,3 9,9 53 71 93 1.011 1.014 1.015 ESE 1,9 20,9 0,0
25-06-2020 15,8     21,8     26,8 11,0 51 71 94 1.013 1.015 1.018 SE 1,7 19,3 0,0
24-06-2020 15,8     20,8     26,9 11,1 52 77 92 1.015 1.016 1.017 SE 1,4 22,5 0,0
23-06-2020 16,7     22,7     28,6 11,9 48 65 81 1.014 1.017 1.019 ENE 1,7 20,9 0,0
22-06-2020 18,2     23,9     29,8 11,6 37 61 88 1.016 1.019 1.021 SE 2,7 22,5 0,0
21-06-2020 16,9     22,2     27,6 10,7 69 80 90 1.018 1.020 1.021 SE 1,4 16,1 0,0
20-06-2020 15,2     22,3     28,8 13,6 54 76 90 1.018 1.019 1.021 ESE 2,0 17,7 0,0
19-06-2020 16,0     19,5     25,3 9,3 72 89 97 1.016 1.017 1.020 SE 2,1 16,1 1,4 0,20
18-06-2020 14,9     18,3     21,6 6,7 80 92 98 1.013 1.014 1.016 E 1,9 20,9 0,2
17-06-2020 14,8     18,1     22,4 7,6 78 92 99 1.013 1.014 1.016 SE 1,9 19,3 9,6 0,83 1,60
16-06-2020 16,2     19,2     24,1 7,9 41 82 98 1.014 1.015 1.017 ESE 2,4 24,1 1,8 0,20
15-06-2020 18,8     23,3     26,4 7,6 36 48 73 1.016 1.017 1.019 S 4,2 20,9 0,0
14-06-2020 16,1     21,2     26,3 10,2 37 53 65 1.015 1.016 1.018 S 3,5 24,1 0,0
13-06-2020 15,2     20,1     26,0 10,8 31 47 60 1.009 1.012 1.016 OSO 8,2 56,3 0,0
12-06-2020 16,4     20,9     26,4 10,0 25 50 70 1.002 1.004 1.008 OSO 8,4 35,4 0,0
11-06-2020 14,1     21,7     27,9 13,8 34 61 97 1.001 1.006 1.012 SO 5,5 30,6 0,0
10-06-2020 13,3     18,4     23,0 9,7 68 77 95 1.011 1.014 1.016 S 3,1 17,7 0,0
09-06-2020 11,7     17,2     22,4 10,7 53 74 93 1.014 1.015 1.017 SSO 3,6 22,5 0,6
08-06-2020 12,5     14,9     18,0 5,5 60 91 98 1.010 1.012 1.016 ESE 1,6 20,9 16,2 0,37 3,70
07-06-2020 15,4     22,5     27,6 12,2 33 59 97 1.004 1.005 1.010 S 4,9 43,5 2,6
Últims 13 mesos disponibles
06/2020 11,7 15,8 19,9 21,1 18,0 26,5 30,2 18,5 47 70 92 1.004 1.013 1.020 SE 3,3 66,0 35,0
05/2020 10,1 13,8 18,7 18,6 15,2 23,5 30,2 20,1 50 70 92 1.004 1.016 1.026 SE 3,6 57,9 134,2
04/2020 5,8 9,5 14,9 12,8 11,4 16,6 22,5 16,7 51 82 99 1.005 1.015 1.025 E 3,7 49,9 128,6
03/2020 4,8 8,5 15,2 11,7 7,2 15,5 24,9 20,1 41 76 99 1.006 1.016 1.026 ENE 5,5 91,7 130,6
02/2020 4,2 9,3 14,4 13,7 11,4 18,5 24,3 20,1 34 66 96 1.013 1.025 1.032 O 4,7 59,5 8,6
01/2020 3,0 6,2 11,9 9,5 8,4 13,6 18,4 15,4 43 78 99 1.015 1.025 1.032 SSE 5,1 69,2 463,2
12/2019 3,9 8,9 15,8 12,2 9,2 15,6 22,7 18,8 35 71 98 1.002 1.018 1.032 O 7,3 93,3 397,4
11/2019 2,6 9,3 17,9 12,5 11,5 15,9 23,7 21,1 52 65 81 999 1.010 1.018 O 11,0 67,6 24,4
10/2019 8,9 14,0 17,3 18,1 14,0 22,3 30,4 21,5 29 69 94 1.008 1.016 1.021 OSO 4,2 51,5 84,2
09/2019 11,9 17,2 20,9 20,8 18,1 24,5 31,4 19,5 47 81 100 1.009 1.017 1.023 ENE 3,2 80,5 331,8
08/2019 16,6 19,4 26,3 24,4 23,7 29,6 38,6 22,0 30 71 91 1.009 1.015 1.019 E 2,9 37,0 212,2
07/2019 17,6 19,4 23,2 24,9 24,5 30,1 37,1 19,5 37 64 89 1.005 1.013 1.021 ENE 3,2 59,5 1,0
06/2019 9,6 15,2 20,7 20,8 18,3 26,2 34,7 25,1 37 62 90 1.008 1.014 1.021 E 3,2 51,5 1,8
Tots els anys disponibles
2019 1,1 12,1 26,3 16,4 8,9 20,8 38,6 37,5 28 67 100 995 1.016 1.033 E 5,0 93,3 1.771,2
Temperatura (°C)
Humitat relativa (%)
Velocitat del vent i ràfega màxima (km/h)
Direcció del vent (°)
Pressió (hPa)
Precipitació (mm)
Nota sobre les dades: s'avisa a l'usuari de la provisionalitat i no oficialitat d'aquestes dades
Logo AVAMET blanc
Web allotjada a Sollutia
Llicència de Creative CommonsLa web d'AVAMET i els seus continguts estan subjectes a una llicència de
Reconeixement - No Comercial - Compartir igual
Últimes estacions: Quesa - Hotel La Rocha (Soci), Agres - Les Eres (Soci), la Vilavella - Ptda Forns (Soci), Miramar - Platja (Inforatge), San Fulgencio - Centre & San Fulgencio - Urb. La Marina (MeteOrihuela), Ontinyent - els Gínjols (Soci), Orba (Ajuntament Soci), Xixona - Monnegre de Baix (Soci) - - -